Time;durP1;ratioP1;P1;durP2;ratioP2;P2;SDS_P1;SDS_P2;PMS_P1;PMS_P2;Temp;Humidity;BMP_temperature;BMP_pressure;BME280_temperature;BME280_humidity;BME280_pressure;Samples;Min_cycle;Max_cycle;Signal;HPM_P1;HPM_P2
2024/01/17 00:11:05;;;;;;;40.92;15.30;;;;;;;;;;10342407;22;20055;-88
2024/01/17 00:15:09;;;;;;;36.10;15.02;;;;;;;;;;10336352;23;20024;-88
2024/01/17 00:23:23;;;;;;;70.25;31.08;;;;;;;;;;10337947;22;20057;-90
2024/01/17 00:27:28;;;;;;;34.20;15.40;;;;;;;;;;10338305;23;20020;-89
2024/01/17 00:31:32;;;;;;;33.08;11.63;;;;;;;;;;10341239;22;20044;-89
2024/01/17 00:35:36;;;;;;;28.27;11.88;;;;;;;;;;10340469;23;20058;-88
2024/01/17 00:39:39;;;;;;;38.30;18.23;;;;;;;;;;10336077;23;20028;-89
2024/01/17 00:48:55;;;;;;;31.13;13.13;;;;;;;;;;10316679;22;20459;-89
2024/01/17 00:52:58;;;;;;;29.08;12.82;;;;;;;;;;10337329;23;20448;-88
2024/01/17 00:57:03;;;;;;;29.85;11.93;;;;;;;;;;10337496;23;20155;-88
2024/01/17 01:01:07;;;;;;;24.67;12.40;;;;;;;;;;10335984;23;20054;-88
2024/01/17 01:05:13;;;;;;;40.40;13.77;;;;;;;;;;10336041;23;20028;-88
2024/01/17 01:09:16;;;;;;;22.27;8.18;;;;;;;;;;10354119;23;20016;-88
2024/01/17 01:13:19;;;;;;;18.45;10.27;;;;;;;;;;10337282;23;20352;-89
2024/01/17 01:17:22;;;;;;;13.70;6.35;;;;;;;;;;10337224;23;20020;-89
2024/01/17 01:21:26;;;;;;;13.98;6.80;;;;;;;;;;10337180;23;20095;-88
2024/01/17 01:25:29;;;;;;;16.30;8.38;;;;;;;;;;10336769;23;20055;-89
2024/01/17 01:29:34;;;;;;;16.55;7.95;;;;;;;;;;10336700;23;20445;-89
2024/01/17 01:33:43;;;;;;;25.80;11.38;;;;;;;;;;10336849;23;20024;-88
2024/01/17 01:37:47;;;;;;;20.45;10.90;;;;;;;;;;10336986;23;20139;-89
2024/01/17 01:41:50;;;;;;;22.65;8.25;;;;;;;;;;10337295;23;20028;-89
2024/01/17 01:46:10;;;;;;;26.30;11.57;;;;;;;;;;10336823;23;20020;-89
2024/01/17 01:50:13;;;;;;;36.80;15.15;;;;;;;;;;10353671;23;20460;-89
2024/01/17 01:54:20;;;;;;;31.90;15.55;;;;;;;;;;10336745;23;20100;-89
2024/01/17 01:58:23;;;;;;;23.17;12.73;;;;;;;;;;10353710;23;20028;-89
2024/01/17 02:02:26;;;;;;;30.48;11.52;;;;;;;;;;10336886;23;20055;-89
2024/01/17 02:06:34;;;;;;;20.52;7.38;;;;;;;;;;10336971;23;20016;-88
2024/01/17 02:15:30;;;;;;;20.60;7.80;;;;;;;;;;10318774;22;20024;-89
2024/01/17 02:19:33;;;;;;;40.22;15.80;;;;;;;;;;10336984;23;20016;-90
2024/01/17 02:23:37;;;;;;;43.25;18.25;;;;;;;;;;10336767;23;20028;-90
2024/01/17 02:28:06;;;;;;;24.35;9.55;;;;;;;;;;10337134;23;20023;-88
2024/01/17 02:32:27;;;;;;;27.10;11.13;;;;;;;;;;10231247;23;20027;-88
2024/01/17 02:36:30;;;;;;;34.35;14.63;;;;;;;;;;10291542;23;20035;-88
2024/01/17 03:04:51;;;;;;;36.85;22.75;;;;;;;;;;10344696;22;20571;-89
2024/01/17 03:08:54;;;;;;;25.17;11.05;;;;;;;;;;10355963;23;20016;-89
2024/01/17 03:18:16;;;;;;;40.33;15.05;;;;;;;;;;10338908;23;20023;-89
2024/01/17 03:51:14;;;;;;;27.77;11.10;;;;;;;;;;10340101;22;20055;-90
2024/01/17 03:59:36;;;;;;;29.40;15.45;;;;;;;;;;10337906;23;20103;-89
2024/01/17 04:03:41;;;;;;;40.72;14.10;;;;;;;;;;10337251;23;20016;-88
2024/01/17 04:07:48;;;;;;;37.33;14.32;;;;;;;;;;10338595;23;20035;-88
2024/01/17 04:11:52;;;;;;;30.00;15.40;;;;;;;;;;10336949;23;20031;-88
2024/01/17 04:15:57;;;;;;;44.10;14.70;;;;;;;;;;10336887;23;20031;-88
2024/01/17 05:24:05;;;;;;;78.65;30.55;;;;;;;;;;10388472;22;20564;-88
2024/01/17 05:33:46;;;;;;;80.53;30.42;;;;;;;;;;10389354;22;20018;-88
2024/01/17 05:37:49;;;;;;;96.85;34.15;;;;;;;;;;10377731;22;20016;-88
2024/01/17 05:41:53;;;;;;;80.28;28.40;;;;;;;;;;10361002;22;20341;-88
2024/01/17 05:45:57;;;;;;;112.75;41.92;;;;;;;;;;10387695;22;20087;-89
2024/01/17 05:50:02;;;;;;;77.80;28.58;;;;;;;;;;10360374;22;20055;-87
2024/01/17 05:54:07;;;;;;;38.00;15.43;;;;;;;;;;10388115;22;20024;-87
2024/01/17 06:02:42;;;;;;;57.10;25.23;;;;;;;;;;10335142;22;20028;-88
2024/01/17 06:12:09;;;;;;;;;;;;;;;;;;10337113;23;20051;-89
2024/01/17 06:16:13;;;;;;;54.13;19.00;;;;;;;;;;10340379;22;19920;-89
2024/01/17 06:20:18;;;;;;;21.55;10.20;;;;;;;;;;10317712;23;20027;-88
2024/01/17 06:24:22;;;;;;;34.95;17.58;;;;;;;;;;10383289;23;20020;-88
2024/01/17 06:28:27;;;;;;;33.55;16.65;;;;;;;;;;10380537;22;20000;-88
2024/01/17 06:32:30;;;;;;;45.83;13.52;;;;;;;;;;10379053;23;20039;-87
2024/01/17 06:36:33;;;;;;;37.50;12.60;;;;;;;;;;10361559;23;20099;-87
2024/01/17 06:40:37;;;;;;;36.42;13.63;;;;;;;;;;10361399;22;20453;-88
2024/01/17 06:44:59;;;;;;;32.35;16.60;;;;;;;;;;10361090;23;20039;-88
2024/01/17 06:49:17;;;;;;;92.07;25.98;;;;;;;;;;10172272;23;20030;-87
2024/01/17 06:53:21;;;;;;;42.90;16.20;;;;;;;;;;10363537;23;20024;-89
2024/01/17 06:57:24;;;;;;;36.30;14.27;;;;;;;;;;10314297;23;20035;-89
2024/01/17 07:01:29;;;;;;;35.83;12.93;;;;;;;;;;10344598;23;20020;-88
2024/01/17 07:05:32;;;;;;;44.33;15.75;;;;;;;;;;10347875;23;20020;-89
2024/01/17 07:09:35;;;;;;;55.45;15.10;;;;;;;;;;10350605;23;20023;-88
2024/01/17 07:13:38;;;;;;;53.92;19.17;;;;;;;;;;10345174;23;20353;-88
2024/01/17 07:17:44;;;;;;;34.53;13.60;;;;;;;;;;10339458;23;20016;-88
2024/01/17 09:03:01;;;;;;;59.63;32.10;;;;;;;;;;10352809;22;20011;-88
2024/01/17 09:07:08;;;;;;;44.20;26.25;;;;;;;;;;10227911;23;20024;-89
2024/01/17 09:15:22;;;;;;;38.10;20.15;;;;;;;;;;10341427;22;20436;-90
2024/01/17 09:19:25;;;;;;;49.92;18.83;;;;;;;;;;10337456;23;20044;-90
2024/01/17 09:23:30;;;;;;;34.72;19.05;;;;;;;;;;10337039;23;20437;-89
2024/01/17 09:27:33;;;;;;;24.83;14.73;;;;;;;;;;10310340;23;20043;-90
2024/01/17 09:31:37;;;;;;;25.50;13.80;;;;;;;;;;10310502;23;20447;-90
2024/01/17 09:35:42;;;;;;;40.55;22.40;;;;;;;;;;10337100;23;20445;-89
2024/01/17 09:39:57;;;;;;;;;;;;;;;;;;;;;
2024/01/17 09:44:19;;;;;;;21.38;12.00;;;;;;;;;;10334419;23;20363;-91
2024/01/17 09:48:27;;;;;;;23.02;11.75;;;;;;;;;;10339420;23;20050;-90
2024/01/17 09:52:34;;;;;;;23.98;12.95;;;;;;;;;;10316308;23;20028;-90
2024/01/17 09:56:43;;;;;;;20.73;10.90;;;;;;;;;;10359507;23;20318;-91
2024/01/17 10:00:47;;;;;;;38.97;22.65;;;;;;;;;;10341129;23;20094;-90
2024/01/17 10:04:50;;;;;;;34.88;21.75;;;;;;;;;;10341268;23;20086;-90
2024/01/17 10:08:55;;;;;;;37.17;22.40;;;;;;;;;;10315921;23;20020;-89
2024/01/17 10:13:02;;;;;;;31.02;17.90;;;;;;;;;;10315795;23;20035;-89
2024/01/17 10:45:27;;;;;;;15.60;9.93;;;;;;;;;;10342362;23;20530;-91
2024/01/17 10:49:30;;;;;;;30.30;10.75;;;;;;;;;;10358623;23;20127;-89
2024/01/17 10:53:34;;;;;;;24.98;10.98;;;;;;;;;;10341706;23;20018;-88
2024/01/17 10:57:41;;;;;;;22.77;9.88;;;;;;;;;;10341727;23;20040;-89
2024/01/17 11:14:40;;;;;;;20.25;9.48;;;;;;;;;;10290269;22;20095;-87
2024/01/17 11:18:46;;;;;;;8.65;3.70;;;;;;;;;;10305860;23;20086;-87
2024/01/17 11:22:49;;;;;;;13.63;7.72;;;;;;;;;;10305351;23;20107;-87
2024/01/17 11:27:01;;;;;;;25.85;13.70;;;;;;;;;;10288970;23;20023;-90
2024/01/17 11:31:22;;;;;;;12.90;6.13;;;;;;;;;;10305671;23;20670;-91
2024/01/17 11:35:45;;;;;;;21.88;10.20;;;;;;;;;;10262390;23;20016;-90
2024/01/17 11:39:48;;;;;;;45.47;22.88;;;;;;;;;;10289172;23;20017;-89
2024/01/17 11:43:51;;;;;;;55.42;16.50;;;;;;;;;;10288422;23;20155;-91
2024/01/17 11:48:13;;;;;;;48.17;19.05;;;;;;;;;;10288684;23;20020;-89
2024/01/17 11:52:29;;;;;;;17.05;9.07;;;;;;;;;;10305301;23;20453;-88
2024/01/17 11:56:33;;;;;;;24.88;13.32;;;;;;;;;;10305234;23;20144;-90
2024/01/17 12:00:39;;;;;;;19.63;8.20;;;;;;;;;;10237802;23;20026;-89
2024/01/17 12:04:44;;;;;;;42.95;15.55;;;;;;;;;;10289183;23;20104;-90
2024/01/17 12:08:47;;;;;;;32.75;9.50;;;;;;;;;;10262286;23;20031;-89
2024/01/17 12:13:05;;;;;;;31.23;10.60;;;;;;;;;;10277076;23;20094;-89
2024/01/17 12:17:10;;;;;;;21.73;8.23;;;;;;;;;;10288716;23;20083;-90
2024/01/17 12:21:16;;;;;;;42.80;12.63;;;;;;;;;;10261308;23;20047;-90
2024/01/17 12:36:01;;;;;;;18.15;7.35;;;;;;;;;;10287786;23;20054;-91
2024/01/17 12:40:09;;;;;;;19.50;8.70;;;;;;;;;;10287389;23;20021;-89
2024/01/17 12:44:12;;;;;;;15.20;8.00;;;;;;;;;;10287570;23;20051;-89
2024/01/17 13:06:03;;;;;;;34.97;15.00;;;;;;;;;;10290721;22;20029;-91
2024/01/17 13:10:19;;;;;;;27.50;11.35;;;;;;;;;;10303843;23;20095;-90
2024/01/17 13:14:24;;;;;;;19.15;11.38;;;;;;;;;;10303818;23;20017;-91
2024/01/17 13:18:28;;;;;;;17.83;7.07;;;;;;;;;;10287063;23;20020;-90
2024/01/17 13:22:33;;;;;;;20.13;8.88;;;;;;;;;;10286818;23;20437;-91
2024/01/17 13:26:36;;;;;;;33.13;10.27;;;;;;;;;;10287034;23;20016;-90
2024/01/17 13:30:40;;;;;;;20.27;8.77;;;;;;;;;;10286999;23;20457;-90
2024/01/17 13:40:08;;;;;;;20.45;8.65;;;;;;;;;;10287100;23;20082;-90
2024/01/17 13:44:12;;;;;;;15.25;6.38;;;;;;;;;;10286715;23;20079;-90
2024/01/17 13:48:16;;;;;;;22.17;10.00;;;;;;;;;;10287156;23;20445;-90
2024/01/17 13:52:20;;;;;;;19.05;8.18;;;;;;;;;;10286847;23;20028;-91
2024/01/17 13:56:25;;;;;;;17.95;8.13;;;;;;;;;;10286890;23;20016;-90
2024/01/17 14:00:28;;;;;;;11.88;5.38;;;;;;;;;;10285225;22;20056;-89
2024/01/17 14:04:31;;;;;;;14.60;7.35;;;;;;;;;;10286820;23;20021;-90
2024/01/17 14:08:34;;;;;;;12.02;6.40;;;;;;;;;;10285367;23;20028;-91
2024/01/17 14:12:42;;;;;;;13.02;6.38;;;;;;;;;;10286624;23;20023;-91
2024/01/17 14:26:18;;;;;;;14.43;6.25;;;;;;;;;;10287167;23;20345;-89
2024/01/17 14:35:39;;;;;;;15.77;7.35;;;;;;;;;;10288691;23;20144;-89
2024/01/17 14:39:43;;;;;;;33.13;16.30;;;;;;;;;;10288658;23;20027;-90
2024/01/17 14:43:46;;;;;;;11.05;6.40;;;;;;;;;;10289871;23;20031;-89
2024/01/17 14:47:49;;;;;;;13.35;8.43;;;;;;;;;;10291853;23;20433;-89
2024/01/17 14:51:53;;;;;;;31.95;18.88;;;;;;;;;;10290671;23;20021;-90
2024/01/17 14:55:56;;;;;;;15.00;8.70;;;;;;;;;;10290059;23;20091;-90
2024/01/17 14:59:59;;;;;;;13.77;7.82;;;;;;;;;;10289555;23;20353;-89
2024/01/17 15:04:02;;;;;;;17.00;7.63;;;;;;;;;;10289456;23;20021;-89
2024/01/17 15:08:08;;;;;;;16.48;6.82;;;;;;;;;;10289911;23;20495;-90
2024/01/17 15:12:23;;;;;;;84.22;31.35;;;;;;;;;;10305803;23;20100;-90
2024/01/17 15:16:26;;;;;;;70.80;23.85;;;;;;;;;;10289577;23;20070;-90
2024/01/17 15:20:30;;;;;;;43.03;19.70;;;;;;;;;;10304154;23;20032;-90
2024/01/17 15:24:34;;;;;;;40.63;16.83;;;;;;;;;;10339606;23;20040;-90
2024/01/17 15:28:38;;;;;;;10.50;5.75;;;;;;;;;;10339290;23;20066;-90
2024/01/17 15:32:41;;;;;;;26.17;11.45;;;;;;;;;;10340018;23;20051;-90
2024/01/17 15:36:44;;;;;;;16.25;8.38;;;;;;;;;;10339489;23;20024;-91
2024/01/17 15:40:55;;;;;;;32.53;12.70;;;;;;;;;;10315308;23;20086;-90
2024/01/17 15:44:58;;;;;;;36.75;11.75;;;;;;;;;;10355688;23;20035;-90
2024/01/17 15:49:01;;;;;;;41.90;14.00;;;;;;;;;;10339347;23;20091;-89
2024/01/17 15:53:05;;;;;;;11.27;5.55;;;;;;;;;;10341885;23;20020;-90
2024/01/17 15:57:09;;;;;;;25.40;12.55;;;;;;;;;;10339161;23;20043;-89
2024/01/17 16:01:12;;;;;;;36.20;15.77;;;;;;;;;;10311712;23;20091;-90
2024/01/17 16:05:15;;;;;;;45.97;16.88;;;;;;;;;;10339302;23;20466;-90
2024/01/17 16:09:18;;;;;;;36.05;12.45;;;;;;;;;;10311773;23;20089;-91
2024/01/17 16:13:24;;;;;;;41.47;17.92;;;;;;;;;;10311682;23;20023;-90
2024/01/17 16:17:30;;;;;;;19.13;7.75;;;;;;;;;;10355231;23;20057;-89
2024/01/17 16:26:52;;;;;;;50.33;12.88;;;;;;;;;;10239585;22;20020;-89
2024/01/17 16:31:01;;;;;;;30.38;11.23;;;;;;;;;;10390488;22;20077;-90
2024/01/17 16:35:05;;;;;;;22.45;9.77;;;;;;;;;;10408239;22;20098;-89
2024/01/17 16:39:11;;;;;;;22.30;9.77;;;;;;;;;;10391423;22;20020;-89
2024/01/17 16:43:14;;;;;;;42.95;21.90;;;;;;;;;;10406008;22;20015;-90
2024/01/17 16:47:19;;;;;;;33.30;11.00;;;;;;;;;;10389015;22;20106;-91
2024/01/17 16:51:22;;;;;;;37.38;13.82;;;;;;;;;;10361833;22;20031;-90
2024/01/17 17:00:55;;;;;;;17.25;7.22;;;;;;;;;;10388502;22;20070;-91
2024/01/17 17:05:00;;;;;;;16.83;7.75;;;;;;;;;;10370282;22;20031;-90
2024/01/17 17:38:44;;;;;;;101.10;34.63;;;;;;;;;;10320235;22;20054;-89
2024/01/17 17:43:12;;;;;;;25.10;9.77;;;;;;;;;;10389204;22;20039;-90
2024/01/17 17:47:16;;;;;;;19.02;10.30;;;;;;;;;;10389316;22;20042;-89
2024/01/17 17:51:26;;;;;;;11.80;5.22;;;;;;;;;;10406832;22;20030;-89
2024/01/17 17:55:35;;;;;;;12.25;6.22;;;;;;;;;;10409162;22;20459;-89
2024/01/17 17:59:38;;;;;;;17.38;8.05;;;;;;;;;;10391958;22;20015;-88
2024/01/17 18:03:41;;;;;;;10.02;5.32;;;;;;;;;;10365432;22;20077;-89
2024/01/17 18:07:46;;;;;;;17.10;9.65;;;;;;;;;;10392344;22;20051;-90
2024/01/17 18:11:51;;;;;;;19.45;9.30;;;;;;;;;;10392212;22;20463;-89
2024/01/17 18:15:58;;;;;;;13.75;7.88;;;;;;;;;;10392169;22;20098;-90
2024/01/17 18:20:01;;;;;;;14.35;7.82;;;;;;;;;;10392694;22;20031;-90
2024/01/17 18:24:04;;;;;;;18.33;10.18;;;;;;;;;;10392202;22;20077;-90
2024/01/17 18:28:09;;;;;;;16.77;9.70;;;;;;;;;;10395184;22;20015;-89
2024/01/17 18:32:12;;;;;;;17.08;8.13;;;;;;;;;;10422260;22;20027;-89
2024/01/17 18:36:15;;;;;;;20.13;9.10;;;;;;;;;;10424929;22;20020;-89
2024/01/17 18:40:19;;;;;;;33.20;18.48;;;;;;;;;;10424958;22;20033;-90
2024/01/17 18:44:30;;;;;;;19.73;9.75;;;;;;;;;;10418675;22;20031;-89
2024/01/17 18:48:34;;;;;;;17.20;8.45;;;;;;;;;;10393784;22;20027;-91
2024/01/17 18:52:37;;;;;;;19.60;8.93;;;;;;;;;;10424111;22;20019;-90
2024/01/17 18:56:40;;;;;;;14.43;7.35;;;;;;;;;;10389597;22;20046;-91
2024/01/17 19:00:45;;;;;;;22.85;12.82;;;;;;;;;;10403276;22;20023;-91
2024/01/17 19:04:48;;;;;;;19.02;11.43;;;;;;;;;;10393840;22;20098;-91
2024/01/17 19:08:50;;;;;;;33.50;16.52;;;;;;;;;;10393269;22;20019;-90
2024/01/17 19:12:53;;;;;;;24.83;10.48;;;;;;;;;;10391316;22;20020;-88
2024/01/17 19:16:58;;;;;;;11.38;6.47;;;;;;;;;;10392177;22;20027;-90
2024/01/17 19:21:02;;;;;;;16.00;7.45;;;;;;;;;;10390402;22;20024;-90
2024/01/17 19:25:06;;;;;;;14.10;7.13;;;;;;;;;;10390051;22;20020;-90
2024/01/17 19:29:09;;;;;;;19.63;8.20;;;;;;;;;;10390062;22;20061;-91
2024/01/17 19:33:13;;;;;;;36.17;12.23;;;;;;;;;;10390128;22;20546;-89
2024/01/17 19:37:17;;;;;;;20.88;7.97;;;;;;;;;;10389911;22;20065;-90
2024/01/17 19:41:22;;;;;;;18.88;7.55;;;;;;;;;;10385240;22;20054;-90
2024/01/17 19:45:25;;;;;;;13.93;6.72;;;;;;;;;;10389916;22;20566;-90
2024/01/17 19:49:30;;;;;;;46.33;18.33;;;;;;;;;;10389615;22;20022;-89
2024/01/17 19:53:33;;;;;;;36.38;13.23;;;;;;;;;;10389600;22;20016;-90
2024/01/17 19:57:38;;;;;;;31.40;10.98;;;;;;;;;;10389545;22;20133;-89
2024/01/17 20:01:42;;;;;;;40.92;19.90;;;;;;;;;;10406500;22;20026;-89
2024/01/17 20:05:46;;;;;;;21.33;9.93;;;;;;;;;;10389403;22;20024;-89
2024/01/17 20:09:50;;;;;;;19.75;9.77;;;;;;;;;;10389723;22;20028;-90
2024/01/17 20:13:52;;;;;;;19.10;9.38;;;;;;;;;;10389237;22;20020;-89
2024/01/17 20:17:55;;;;;;;19.85;8.98;;;;;;;;;;10390376;22;20019;-89
2024/01/17 20:22:03;;;;;;;15.30;8.15;;;;;;;;;;10405902;22;20019;-90
2024/01/17 20:26:06;;;;;;;16.20;7.50;;;;;;;;;;10388896;22;20019;-90
2024/01/17 20:30:15;;;;;;;18.80;9.05;;;;;;;;;;10389155;22;20022;-90
2024/01/17 20:34:18;;;;;;;16.58;8.40;;;;;;;;;;10405801;22;20041;-90
2024/01/17 20:38:23;;;;;;;16.83;8.73;;;;;;;;;;10387197;22;20023;-89
2024/01/17 20:42:34;;;;;;;21.80;9.75;;;;;;;;;;10361517;22;20019;-91
2024/01/17 20:46:41;;;;;;;16.93;8.60;;;;;;;;;;10407749;22;20030;-90
2024/01/17 20:50:44;;;;;;;13.98;7.30;;;;;;;;;;10406255;22;20475;-90
2024/01/17 20:54:48;;;;;;;12.20;6.65;;;;;;;;;;10362220;22;20456;-90
2024/01/17 20:58:54;;;;;;;16.23;7.35;;;;;;;;;;10388428;22;20023;-90
2024/01/17 21:02:58;;;;;;;15.35;7.30;;;;;;;;;;10405564;22;20019;-89
2024/01/17 21:07:01;;;;;;;15.75;6.32;;;;;;;;;;10388162;22;20016;-90
2024/01/17 21:11:06;;;;;;;14.93;7.45;;;;;;;;;;10361394;22;20016;-91
2024/01/17 21:20:27;;;;;;;14.55;7.32;;;;;;;;;;10388782;22;20022;-91
2024/01/17 21:24:30;;;;;;;13.98;6.32;;;;;;;;;;10389237;22;20012;-90
2024/01/17 21:28:36;;;;;;;18.55;7.88;;;;;;;;;;10388108;22;20074;-92
2024/01/17 21:32:40;;;;;;;9.90;5.03;;;;;;;;;;10405357;22;20440;-91
2024/01/17 21:37:19;;;;;;;13.77;6.20;;;;;;;;;;10387811;22;20030;-90
2024/01/17 21:41:23;;;;;;;16.33;8.13;;;;;;;;;;10388164;22;20463;-91
2024/01/17 21:51:20;;;;;;;11.57;6.03;;;;;;;;;;10387485;22;20098;-89
2024/01/17 21:55:27;;;;;;;10.60;6.33;;;;;;;;;;10387829;22;20016;-90
2024/01/17 22:04:44;;;;;;;16.02;7.32;;;;;;;;;;10182510;23;20041;-90
2024/01/17 22:08:48;;;;;;;14.55;7.63;;;;;;;;;;10187469;23;20096;-90
2024/01/17 22:12:56;;;;;;;12.93;5.45;;;;;;;;;;10182941;23;20608;-90
2024/01/17 22:17:00;;;;;;;12.93;6.05;;;;;;;;;;10157837;23;20390;-90
2024/01/17 22:21:03;;;;;;;17.42;7.25;;;;;;;;;;10157872;23;20029;-90
2024/01/17 23:10:05;;;;;;;11.45;4.32;;;;;;;;;;10357605;22;20027;-90
2024/01/17 23:14:08;;;;;;;13.00;6.68;;;;;;;;;;10407484;22;20470;-90
2024/01/17 23:18:15;;;;;;;11.80;5.30;;;;;;;;;;10390063;22;20019;-89
2024/01/17 23:39:14;;;;;;;12.63;6.30;;;;;;;;;;10338970;22;20028;-91
2024/01/17 23:43:17;;;;;;;11.77;5.35;;;;;;;;;;10339506;23;20447;-90
2024/01/17 23:52:39;;;;;;;9.45;5.05;;;;;;;;;;10133417;23;20068;-90
2024/01/17 23:56:43;;;;;;;12.30;5.32;;;;;;;;;;10338479;23;20024;-92
